Time;durP1;ratioP1;P1;durP2;ratioP2;P2;SDS_P1;SDS_P2;PMS_P1;PMS_P2;Temp;Humidity;BMP_temperature;BMP_pressure;BME280_temperature;BME280_humidity;BME280_pressure;Samples;Min_cycle;Max_cycle;Signal;HPM_P1;HPM_P2
2022/08/23 00:01:24;;;;;;;1.50;1.30;;;23.50;66.20;;;;;;5039105;28;44677;-68
2022/08/23 00:03:58;;;;;;;1.52;1.40;;;23.50;66.20;;;;;;5037956;28;44022;-69
2022/08/23 00:06:26;;;;;;;1.60;1.50;;;23.50;66.20;;;;;;5040000;28;43471;-68
2022/08/23 00:08:55;;;;;;;1.30;1.27;;;23.50;66.20;;;;;;5041082;28;43414;-66
2022/08/23 00:11:34;;;;;;;1.40;1.30;;;23.50;66.20;;;;;;5028408;28;44697;-68
2022/08/23 00:14:14;;;;;;;1.83;1.45;;;23.50;66.20;;;;;;5042103;28;43515;-68
2022/08/23 00:16:43;;;;;;;1.70;1.55;;;23.50;66.20;;;;;;5039863;28;44082;-68
2022/08/23 00:19:13;;;;;;;1.75;1.40;;;23.40;66.20;;;;;;5038141;28;43597;-68
2022/08/23 00:21:43;;;;;;;1.42;1.33;;;23.40;66.20;;;;;;5038684;28;44973;-68
2022/08/23 00:24:12;;;;;;;1.92;1.50;;;23.50;66.20;;;;;;5037744;28;43746;-68
2022/08/23 00:26:59;;;;;;;1.63;1.52;;;23.40;66.20;;;;;;5040377;28;43510;-68
2022/08/23 00:29:38;;;;;;;2.58;1.50;;;23.40;66.10;;;;;;5034227;28;43518;-68
2022/08/23 00:32:08;;;;;;;1.35;1.25;;;23.40;66.10;;;;;;5039150;28;44979;-68
2022/08/23 00:34:36;;;;;;;1.20;1.20;;;23.40;66.10;;;;;;5041178;28;44254;-68
2022/08/23 00:37:04;;;;;;;1.65;1.38;;;23.40;66.10;;;;;;5036280;28;43447;-68
2022/08/23 00:39:32;;;;;;;1.73;1.27;;;23.40;66.10;;;;;;5029698;28;43539;-68
2022/08/23 00:47:49;;;;;;;1.42;1.33;;;23.40;66.20;;;;;;5032228;28;43989;-68
2022/08/23 00:50:28;;;;;;;2.05;1.50;;;23.40;66.20;;;;;;5038281;28;43619;-68
2022/08/23 00:53:01;;;;;;;1.40;1.30;;;23.40;66.10;;;;;;5042447;28;43813;-69
2022/08/23 00:55:29;;;;;;;1.52;1.38;;;23.40;66.10;;;;;;5052497;28;43964;-68
2022/08/23 00:57:57;;;;;;;1.30;1.17;;;23.30;66.10;;;;;;5030783;28;43443;-68
2022/08/23 01:00:26;;;;;;;1.40;1.30;;;23.30;66.10;;;;;;5034617;28;43428;-68
2022/08/23 01:02:54;;;;;;;1.33;1.20;;;23.30;66.10;;;;;;5059534;28;44708;-68
2022/08/23 01:05:27;;;;;;;1.50;1.40;;;23.30;66.10;;;;;;5044492;28;43998;-68
2022/08/23 01:07:57;;;;;;;1.10;1.10;;;23.30;66.10;;;;;;5041732;28;43427;-69
2022/08/23 01:10:31;;;;;;;1.42;1.33;;;23.30;66.10;;;;;;5037760;28;43511;-68
2022/08/23 01:13:12;;;;;;;1.30;1.20;;;23.30;66.10;;;;;;5042518;28;44997;-68
2022/08/23 01:16:09;;;;;;;1.40;1.30;;;23.30;66.00;;;;;;5056636;28;43983;-68
2022/08/23 01:18:38;;;;;;;1.38;1.30;;;23.30;66.10;;;;;;5012602;28;43553;-68
2022/08/23 01:21:19;;;;;;;1.40;1.30;;;23.30;66.10;;;;;;5054925;28;43434;-69
2022/08/23 01:23:52;;;;;;;2.10;1.60;;;23.30;66.10;;;;;;5054922;28;43830;-67
2022/08/23 01:26:22;;;;;;;1.40;1.30;;;23.20;66.00;;;;;;5034686;28;43871;-68
2022/08/23 01:28:52;;;;;;;1.77;1.25;;;23.20;66.10;;;;;;5050775;28;43371;-68
2022/08/23 01:31:21;;;;;;;1.50;1.40;;;23.30;66.10;;;;;;5054396;28;43475;-68
2022/08/23 01:34:05;;;;;;;1.45;1.35;;;23.30;66.10;;;;;;5029523;28;45092;-68
2022/08/23 01:36:34;;;;;;;1.25;1.00;;;23.30;66.10;;;;;;5041684;28;43663;-68
2022/08/23 01:39:04;;;;;;;1.20;1.10;;;23.30;66.10;;;;;;5045503;28;43460;-67
2022/08/23 01:41:32;;;;;;;1.60;1.50;;;23.30;66.10;;;;;;5040086;28;43420;-68
2022/08/23 01:44:00;;;;;;;1.23;1.13;;;23.20;66.10;;;;;;5054570;28;45001;-69
2022/08/23 01:46:28;;;;;;;1.23;1.23;;;23.20;66.10;;;;;;5045497;28;43943;-68
2022/08/23 01:48:57;;;;;;;1.10;1.10;;;23.20;66.10;;;;;;5052005;28;43409;-68
2022/08/23 01:51:28;;;;;;;1.30;1.20;;;23.20;66.70;;;;;;5053755;28;43470;-68
2022/08/23 01:53:56;;;;;;;1.40;1.10;;;23.20;66.10;;;;;;5042629;28;44798;-68
2022/08/23 01:56:26;;;;;;;1.23;1.10;;;23.20;66.10;;;;;;5035794;28;43944;-68
2022/08/23 01:59:09;;;;;;;2.25;1.30;;;23.20;66.10;;;;;;5054564;28;43417;-68
2022/08/23 02:01:43;;;;;;;1.30;1.20;;;23.20;66.10;;;;;;5046783;28;43564;-68
2022/08/23 02:04:10;;;;;;;1.40;1.30;;;23.20;66.10;;;;;;5048428;28;45020;-68
2022/08/23 02:06:38;;;;;;;1.30;1.15;;;23.20;66.10;;;;;;5036552;28;43795;-68
2022/08/23 02:09:07;;;;;;;1.00;1.00;;;23.20;66.10;;;;;;5039423;28;43507;-68
2022/08/23 02:11:45;;;;;;;1.27;1.25;;;23.20;66.10;;;;;;5034490;28;43544;-68
2022/08/23 02:14:17;;;;;;;1.30;1.20;;;23.20;66.20;;;;;;5056237;28;44953;-68
2022/08/23 02:16:53;;;;;;;1.30;1.23;;;23.20;66.10;;;;;;5039737;28;43757;-68
2022/08/23 02:19:35;;;;;;;1.35;1.20;;;23.10;66.10;;;;;;5048659;28;43533;-68
2022/08/23 02:22:04;;;;;;;1.40;1.30;;;23.10;66.10;;;;;;5032615;28;43567;-68
2022/08/23 02:24:33;;;;;;;1.40;1.30;;;23.10;66.10;;;;;;5033999;28;43912;-68
2022/08/23 02:27:03;;;;;;;1.50;1.40;;;23.10;66.10;;;;;;5040431;28;43706;-68
2022/08/23 02:29:37;;;;;;;1.30;1.20;;;23.10;66.10;;;;;;5046505;28;43467;-68
2022/08/23 02:32:09;;;;;;;1.23;1.20;;;23.10;66.10;;;;;;5035907;28;43519;-68
2022/08/23 02:34:39;;;;;;;1.20;1.20;;;23.10;66.10;;;;;;5052750;28;45652;-68
2022/08/23 02:37:09;;;;;;;1.50;1.40;;;23.10;66.10;;;;;;5033398;28;43788;-68
2022/08/23 02:39:37;;;;;;;1.75;1.65;;;23.10;66.10;;;;;;5037219;28;43479;-68
2022/08/23 02:42:07;;;;;;;1.10;1.10;;;23.10;66.10;;;;;;5055520;28;43531;-68
2022/08/23 02:44:39;;;;;;;1.42;1.33;;;23.10;66.10;;;;;;5037201;28;44961;-68
2022/08/23 02:47:08;;;;;;;1.13;1.13;;;23.10;66.10;;;;;;5056821;28;44130;-67
2022/08/23 02:49:37;;;;;;;1.38;1.27;;;23.10;66.10;;;;;;5048635;28;43448;-68
2022/08/23 02:52:06;;;;;;;1.13;1.10;;;23.00;66.10;;;;;;5041784;28;43382;-68
2022/08/23 02:54:34;;;;;;;1.30;1.20;;;23.10;66.10;;;;;;5040019;28;43827;-68
2022/08/23 02:57:02;;;;;;;1.20;1.20;;;23.10;66.10;;;;;;5039775;28;43535;-68
2022/08/23 02:59:30;;;;;;;1.25;1.15;;;23.00;66.10;;;;;;5048851;28;43427;-68
2022/08/23 03:01:58;;;;;;;1.20;1.17;;;23.00;66.10;;;;;;5049760;28;43589;-68
2022/08/23 03:04:31;;;;;;;1.05;1.02;;;23.10;66.10;;;;;;5032376;28;43785;-68
2022/08/23 03:06:58;;;;;;;1.95;1.25;;;23.00;66.10;;;;;;5030435;28;43401;-68
2022/08/23 03:09:26;;;;;;;1.10;1.10;;;23.00;66.10;;;;;;5049399;28;43518;-68
2022/08/23 03:11:54;;;;;;;1.10;1.10;;;23.00;66.80;;;;;;5034635;28;43610;-68
2022/08/23 03:14:23;;;;;;;1.08;1.08;;;23.00;66.10;;;;;;5039936;28;44320;-67
2022/08/23 03:16:51;;;;;;;1.05;1.05;;;23.00;66.10;;;;;;5047357;28;43537;-67
2022/08/23 03:19:23;;;;;;;;;;;23.00;66.10;;;;;;5050044;28;43427;-68
2022/08/23 03:21:50;;;;;;;0.93;0.93;;;23.00;66.20;;;;;;5040854;28;43553;-68
2022/08/23 03:24:19;;;;;;;1.25;1.20;;;22.90;66.20;;;;;;5047855;28;44922;-67
2022/08/23 03:26:46;;;;;;;1.30;1.20;;;22.90;66.20;;;;;;5036709;28;43936;-68
2022/08/23 03:29:15;;;;;;;1.20;1.20;;;22.90;66.10;;;;;;5056073;28;43471;-67
2022/08/23 03:32:01;;;;;;;1.05;1.05;;;22.90;66.20;;;;;;5040180;28;43596;-68
2022/08/23 03:34:33;;;;;;;1.20;1.20;;;22.90;66.20;;;;;;5044591;28;43793;-68
2022/08/23 03:37:01;;;;;;;0.90;0.90;;;22.90;66.20;;;;;;5035954;28;43930;-68
2022/08/23 03:39:29;;;;;;;1.20;1.20;;;22.90;66.10;;;;;;5031398;28;43395;-68
2022/08/23 03:41:58;;;;;;;0.90;0.90;;;22.90;66.10;;;;;;5046613;28;43552;-68
2022/08/23 03:44:30;;;;;;;1.00;1.00;;;22.90;66.10;;;;;;5036304;28;44980;-67
2022/08/23 03:46:57;;;;;;;0.90;0.90;;;22.90;66.20;;;;;;5048707;28;43993;-68
2022/08/23 03:49:26;;;;;;;1.00;1.00;;;22.90;66.20;;;;;;5039864;28;43577;-68
2022/08/23 03:51:56;;;;;;;1.00;1.00;;;22.90;66.10;;;;;;5059139;28;43389;-68
2022/08/23 03:54:23;;;;;;;1.10;1.00;;;22.90;66.20;;;;;;5036195;28;44738;-67
2022/08/23 03:57:01;;;;;;;1.00;1.00;;;22.90;66.20;;;;;;5043711;28;43934;-68
2022/08/23 03:59:34;;;;;;;1.10;1.10;;;22.90;66.20;;;;;;5042462;28;43374;-68
2022/08/23 04:02:04;;;;;;;0.95;0.95;;;22.90;66.20;;;;;;5042277;28;43388;-68
2022/08/23 04:04:32;;;;;;;1.20;1.20;;;22.90;66.20;;;;;;5035574;28;44681;-68
2022/08/23 04:07:19;;;;;;;1.08;0.98;;;22.90;66.20;;;;;;5042103;28;43813;-68
2022/08/23 04:09:50;;;;;;;1.20;1.20;;;22.80;66.10;;;;;;5033761;28;43367;-68
2022/08/23 04:12:24;;;;;;;1.30;1.20;;;22.90;66.20;;;;;;5041627;28;43431;-68
2022/08/23 04:14:52;;;;;;;1.25;1.15;;;22.90;66.20;;;;;;5040776;28;45177;-67
2022/08/23 04:17:21;;;;;;;0.90;0.90;;;22.90;66.20;;;;;;5042508;28;43455;-67
2022/08/23 04:19:50;;;;;;;1.17;1.15;;;22.90;66.20;;;;;;5043241;28;43503;-68
2022/08/23 04:22:19;;;;;;;1.20;1.20;;;22.80;66.10;;;;;;5049617;28;43474;-68
2022/08/23 04:24:47;;;;;;;1.10;1.10;;;22.90;66.20;;;;;;5036903;28;44037;-67
2022/08/23 04:27:15;;;;;;;0.75;0.75;;;22.80;66.10;;;;;;5058766;28;43757;-67
2022/08/23 04:29:46;;;;;;;1.02;1.02;;;22.80;66.10;;;;;;5048024;28;43444;-68
2022/08/23 04:32:14;;;;;;;1.05;1.05;;;22.80;66.20;;;;;;5050833;28;43598;-68
2022/08/23 04:34:57;;;;;;;1.00;1.00;;;22.80;66.10;;;;;;5039852;28;45301;-67
2022/08/23 04:37:24;;;;;;;0.90;0.90;;;22.80;66.20;;;;;;5031736;28;43668;-68
2022/08/23 04:42:41;;;;;;;1.10;1.10;;;22.80;66.10;;;;;;5036899;28;43597;-67
2022/08/23 04:45:10;;;;;;;1.30;1.30;;;22.80;66.20;;;;;;5040664;28;43948;-67
2022/08/23 04:47:43;;;;;;;1.25;1.15;;;22.80;66.10;;;;;;5042742;28;43491;-68
2022/08/23 04:50:11;;;;;;;1.20;1.10;;;22.80;66.10;;;;;;5040288;28;43396;-67
2022/08/23 04:52:57;;;;;;;1.00;1.00;;;22.80;66.10;;;;;;5043381;28;43456;-67
2022/08/23 04:55:25;;;;;;;1.45;1.35;;;22.80;66.20;;;;;;5040965;28;44211;-67
2022/08/23 04:58:07;;;;;;;1.08;1.02;;;22.80;66.20;;;;;;5040109;28;43498;-68
2022/08/23 05:00:43;;;;;;;0.95;0.93;;;22.80;66.20;;;;;;5054614;28;43424;-68
2022/08/23 05:03:19;;;;;;;1.13;1.13;;;22.70;66.20;;;;;;5054454;28;43512;-68
2022/08/23 05:05:47;;;;;;;1.50;1.10;;;22.80;66.20;;;;;;5055201;28;44688;-68
2022/08/23 05:08:17;;;;;;;1.08;1.08;;;22.80;66.20;;;;;;5053304;28;43384;-68
2022/08/23 05:10:45;;;;;;;1.00;1.00;;;22.80;66.20;;;;;;5056027;28;43532;-68
2022/08/23 05:13:13;;;;;;;1.10;1.10;;;22.80;66.20;;;;;;5057956;28;43480;-68
2022/08/23 05:15:43;;;;;;;1.00;1.00;;;22.80;66.10;;;;;;5039885;28;43874;-68
2022/08/23 05:18:11;;;;;;;0.93;0.93;;;22.70;66.10;;;;;;5033303;28;43551;-68
2022/08/23 05:20:39;;;;;;;1.20;1.20;;;22.70;66.10;;;;;;5041833;28;43438;-68
2022/08/23 05:23:07;;;;;;;1.17;1.17;;;22.70;66.10;;;;;;5044571;28;43579;-68
2022/08/23 05:25:51;;;;;;;1.45;1.30;;;22.70;66.20;;;;;;5039996;28;43886;-67
2022/08/23 05:28:38;;;;;;;1.00;1.00;;;22.70;66.20;;;;;;5038605;28;44108;-68
2022/08/23 05:31:14;;;;;;;1.10;1.10;;;22.70;66.10;;;;;;5037669;28;43436;-67
2022/08/23 05:33:46;;;;;;;0.93;0.93;;;22.70;66.20;;;;;;5044534;28;43441;-68
2022/08/23 05:36:19;;;;;;;1.13;1.13;;;22.70;66.20;;;;;;5057651;28;44993;-67
2022/08/23 05:38:46;;;;;;;1.00;1.00;;;22.70;66.20;;;;;;5035997;28;43417;-67
2022/08/23 05:41:15;;;;;;;1.30;1.20;;;22.70;66.20;;;;;;5039125;28;43569;-67
2022/08/23 05:43:45;;;;;;;1.30;1.20;;;22.70;66.20;;;;;;5031743;28;43479;-68
2022/08/23 05:46:21;;;;;;;1.20;1.20;;;22.70;66.20;;;;;;5047693;28;44965;-68
2022/08/23 05:49:15;;;;;;;1.15;1.13;;;22.70;66.20;;;;;;5056447;28;43439;-68
2022/08/23 05:51:48;;;;;;;1.10;1.10;;;22.70;66.20;;;;;;5058556;28;43442;-68
2022/08/23 05:54:19;;;;;;;1.52;1.23;;;22.70;66.20;;;;;;5032443;28;43412;-68
2022/08/23 05:56:58;;;;;;;1.30;1.30;;;22.70;66.20;;;;;;5034583;28;43791;-68
2022/08/23 05:59:26;;;;;;;1.38;1.13;;;22.70;66.30;;;;;;5041600;28;44015;-67
2022/08/23 06:01:54;;;;;;;1.10;1.10;;;22.70;66.20;;;;;;5048247;28;43507;-68
2022/08/23 06:04:22;;;;;;;1.42;1.30;;;22.70;66.30;;;;;;5040725;28;43486;-68
2022/08/23 06:06:49;;;;;;;1.00;1.00;;;22.70;66.20;;;;;;5040569;28;44219;-67
2022/08/23 06:09:18;;;;;;;1.20;1.20;;;22.70;66.20;;;;;;5027186;28;43974;-68
2022/08/23 06:11:47;;;;;;;1.10;1.10;;;22.70;66.20;;;;;;5041670;28;43430;-68
2022/08/23 06:14:15;;;;;;;1.17;1.17;;;22.70;66.30;;;;;;5038509;28;43476;-67
2022/08/23 06:16:46;;;;;;;1.05;1.05;;;22.70;66.20;;;;;;5055081;28;44986;-68
2022/08/23 06:19:18;;;;;;;1.27;1.08;;;22.70;66.30;;;;;;5049991;28;43459;-68
2022/08/23 06:21:46;;;;;;;1.15;1.15;;;22.60;66.30;;;;;;5027828;28;43506;-68
2022/08/23 06:24:19;;;;;;;1.20;1.10;;;22.70;66.30;;;;;;5033474;28;43532;-68
2022/08/23 06:27:00;;;;;;;1.10;1.10;;;22.70;66.30;;;;;;5057085;28;44064;-69
2022/08/23 06:29:27;;;;;;;1.00;1.00;;;22.70;66.30;;;;;;5057659;28;43668;-67
2022/08/23 06:32:13;;;;;;;1.30;1.20;;;22.70;66.40;;;;;;5040718;28;43434;-69
2022/08/23 06:35:00;;;;;;;1.30;1.20;;;22.70;66.40;;;;;;5051649;28;43504;-69
2022/08/23 06:38:05;;;;;;;1.30;1.27;;;22.70;66.40;;;;;;5057056;28;43806;-68
2022/08/23 06:40:47;;;;;;;1.40;1.30;;;22.60;66.40;;;;;;5027799;28;43483;-68
2022/08/23 06:43:25;;;;;;;1.52;1.42;;;22.60;66.40;;;;;;5039591;28;43848;-68
2022/08/23 06:46:16;;;;;;;1.48;1.38;;;22.60;66.40;;;;;;5053195;28;43572;-69
2022/08/23 06:48:44;;;;;;;1.23;1.23;;;22.60;66.40;;;;;;5030837;28;44987;-68
2022/08/23 06:51:24;;;;;;;1.58;1.48;;;22.60;66.40;;;;;;5034492;28;43957;-69
2022/08/23 06:54:14;;;;;;;1.60;1.50;;;22.60;66.50;;;;;;5039126;28;43406;-67
2022/08/23 06:56:58;;;;;;;1.83;1.30;;;22.60;66.50;;;;;;5039525;28;43414;-68
2022/08/23 06:59:40;;;;;;;1.20;1.20;;;22.60;66.50;;;;;;5039444;28;44083;-68
2022/08/23 07:02:26;;;;;;;1.50;1.40;;;22.60;66.50;;;;;;5039814;28;43744;-69
2022/08/23 07:04:57;;;;;;;1.60;1.50;;;22.60;66.50;;;;;;5041332;28;43492;-68
2022/08/23 07:07:35;;;;;;;1.55;1.45;;;22.60;66.50;;;;;;5030615;28;43456;-67
2022/08/23 07:10:13;;;;;;;2.05;1.40;;;22.60;66.60;;;;;;5033754;28;43797;-66
2022/08/23 07:12:41;;;;;;;1.40;1.30;;;22.60;66.70;;;;;;5053645;28;43456;-67
2022/08/23 07:15:12;;;;;;;1.33;1.30;;;22.60;66.50;;;;;;5028518;28;43395;-67
2022/08/23 07:17:43;;;;;;;;;;;22.60;66.50;;;;;;5043839;28;43585;-67
2022/08/23 07:20:11;;;;;;;1.25;1.25;;;22.60;66.50;;;;;;5032202;28;44047;-67
2022/08/23 07:22:42;;;;;;;1.50;1.40;;;22.60;66.60;;;;;;5055702;28;43724;-67
2022/08/23 07:25:10;;;;;;;1.50;1.40;;;22.60;66.50;;;;;;5043987;28;43454;-67
2022/08/23 07:27:39;;;;;;;2.25;1.30;;;22.60;66.50;;;;;;5048951;28;43732;-67
2022/08/23 07:30:08;;;;;;;1.50;1.40;;;22.60;66.50;;;;;;5052236;28;44053;-67
2022/08/23 07:32:39;;;;;;;1.80;1.40;;;22.60;66.40;;;;;;5053128;28;43397;-67
2022/08/23 07:35:17;;;;;;;1.33;1.27;;;22.60;66.50;;;;;;5047471;28;43471;-68
2022/08/23 07:37:49;;;;;;;1.40;1.30;;;22.60;66.40;;;;;;5038363;28;43621;-68
2022/08/23 07:40:18;;;;;;;1.40;1.30;;;22.60;66.50;;;;;;5059128;28;43895;-68
2022/08/23 07:42:49;;;;;;;1.67;1.58;;;22.60;66.40;;;;;;5047760;28;43758;-67
2022/08/23 07:45:17;;;;;;;1.48;1.40;;;22.60;66.40;;;;;;5041038;28;43472;-68
2022/08/23 07:47:53;;;;;;;1.52;1.42;;;22.60;66.40;;;;;;5027527;28;43599;-68
2022/08/23 07:50:23;;;;;;;1.50;1.40;;;22.60;66.40;;;;;;5048862;28;43892;-68
2022/08/23 07:52:57;;;;;;;1.20;1.20;;;22.60;66.40;;;;;;5043208;28;43718;-69
2022/08/23 07:55:25;;;;;;;1.55;1.45;;;22.60;66.50;;;;;;5038876;28;43451;-68
2022/08/23 07:58:13;;;;;;;1.95;1.65;;;22.70;66.50;;;;;;5037806;28;43602;-66
2022/08/23 08:00:53;;;;;;;1.60;1.50;;;22.70;66.50;;;;;;5056525;28;44974;-65
2022/08/23 08:03:34;;;;;;;1.48;1.40;;;22.70;66.50;;;;;;5035932;28;43975;-65
2022/08/23 08:06:30;;;;;;;1.65;1.55;;;22.70;66.50;;;;;;5038318;28;43546;-65
2022/08/23 08:08:58;;;;;;;1.63;1.52;;;22.70;66.50;;;;;;5040347;28;43602;-65
2022/08/23 08:11:29;;;;;;;1.67;1.58;;;22.70;66.40;;;;;;5048690;28;44040;-65
2022/08/23 08:14:07;;;;;;;1.70;1.60;;;22.70;66.50;;;;;;5042542;28;43932;-65
2022/08/23 08:16:47;;;;;;;1.60;1.50;;;22.70;66.40;;;;;;5042881;28;43484;-65
2022/08/23 08:19:21;;;;;;;1.55;1.45;;;22.70;66.40;;;;;;5042089;28;43491;-65
2022/08/23 08:22:04;;;;;;;1.60;1.50;;;22.70;66.40;;;;;;5034219;28;44838;-65
2022/08/23 08:25:10;;;;;;;1.60;1.50;;;22.80;66.40;;;;;;5040932;28;43802;-65
2022/08/23 08:27:41;;;;;;;3.08;1.42;;;22.80;66.40;;;;;;5041623;28;43465;-65
2022/08/23 08:30:10;;;;;;;1.40;1.40;;;22.80;66.30;;;;;;5042568;28;43599;-65
2022/08/23 08:32:38;;;;;;;1.95;1.77;;;22.80;66.30;;;;;;5041684;28;44027;-65
2022/08/23 08:35:14;;;;;;;1.85;1.75;;;22.80;66.30;;;;;;5049939;28;43708;-65
2022/08/23 08:37:42;;;;;;;1.80;1.70;;;22.80;66.30;;;;;;5045676;28;43405;-65
2022/08/23 08:40:10;;;;;;;1.63;1.52;;;22.80;66.30;;;;;;5042497;28;43592;-65
2022/08/23 08:42:57;;;;;;;2.47;1.45;;;22.80;66.30;;;;;;5054075;28;44022;-65
2022/08/23 08:45:31;;;;;;;1.40;1.30;;;22.90;66.30;;;;;;5057075;28;44097;-65
2022/08/23 08:48:10;;;;;;;1.88;1.77;;;22.90;66.30;;;;;;5044800;28;43455;-65
2022/08/23 08:51:02;;;;;;;2.60;1.83;;;22.80;66.20;;;;;;5030132;28;43439;-65
2022/08/23 08:53:38;;;;;;;1.80;1.60;;;22.90;66.20;;;;;;5059319;28;43775;-65
2022/08/23 08:56:13;;;;;;;1.80;1.60;;;22.90;66.20;;;;;;5037105;28;43469;-65
2022/08/23 08:59:08;;;;;;;1.73;1.63;;;22.90;66.20;;;;;;5035657;28;43472;-65
2022/08/23 09:01:37;;;;;;;1.70;1.60;;;22.90;66.20;;;;;;5055335;28;43533;-65
2022/08/23 09:04:06;;;;;;;1.77;1.60;;;22.90;66.20;;;;;;5052525;28;43796;-65
2022/08/23 09:07:14;;;;;;;1.73;1.60;;;22.90;66.10;;;;;;5034057;28;43463;-65
2022/08/23 09:09:54;;;;;;;1.65;1.55;;;23.00;66.20;;;;;;5040985;28;43417;-64
2022/08/23 09:12:55;;;;;;;1.75;1.65;;;23.00;66.30;;;;;;5057120;28;43456;-65
2022/08/23 09:15:47;;;;;;;1.80;1.70;;;23.00;66.30;;;;;;5041567;28;44773;-65
2022/08/23 09:18:16;;;;;;;1.70;1.60;;;23.00;66.30;;;;;;5034586;28;43397;-65
2022/08/23 09:20:47;;;;;;;1.80;1.70;;;23.00;66.30;;;;;;5058680;28;43413;-65
2022/08/23 09:23:16;;;;;;;;;;;23.00;66.10;;;;;;5040930;28;43439;-65
2022/08/23 09:25:52;;;;;;;1.80;1.70;;;23.00;66.30;;;;;;5042008;28;44066;-65
2022/08/23 09:28:26;;;;;;;1.80;1.70;;;23.00;66.20;;;;;;5043031;28;43602;-65
2022/08/23 09:30:56;;;;;;;1.75;1.65;;;23.10;66.30;;;;;;5038257;28;43443;-65
2022/08/23 09:33:35;;;;;;;1.70;1.60;;;23.10;66.30;;;;;;5055609;28;43444;-66
2022/08/23 09:36:22;;;;;;;1.60;1.50;;;23.10;66.20;;;;;;5042274;28;44799;-65
2022/08/23 09:39:01;;;;;;;2.45;1.75;;;23.10;66.20;;;;;;5041196;28;43823;-65
2022/08/23 09:41:37;;;;;;;2.00;1.90;;;23.10;66.20;;;;;;5040116;28;43395;-65
2022/08/23 09:44:09;;;;;;;2.67;1.75;;;23.10;66.20;;;;;;5048547;28;43610;-65
2022/08/23 09:46:43;;;;;;;2.28;1.92;;;23.10;66.20;;;;;;5049334;28;43967;-65
2022/08/23 09:49:24;;;;;;;1.90;1.80;;;23.20;66.20;;;;;;5050532;28;44006;-66
2022/08/23 09:51:59;;;;;;;1.70;1.60;;;23.20;66.10;;;;;;5041253;28;43414;-66
2022/08/23 09:54:34;;;;;;;1.83;1.73;;;23.20;66.20;;;;;;5024364;28;43473;-65
2022/08/23 09:57:10;;;;;;;1.90;1.80;;;23.20;66.20;;;;;;5039944;28;44074;-66
2022/08/23 09:59:50;;;;;;;2.78;2.05;;;23.20;66.30;;;;;;5050757;28;43528;-66
2022/08/23 10:02:33;;;;;;;1.95;1.80;;;23.20;66.30;;;;;;5054095;28;43410;-66
2022/08/23 10:05:35;;;;;;;2.58;2.10;;;23.20;66.30;;;;;;5056644;28;43496;-65
2022/08/23 10:08:05;;;;;;;2.60;1.90;;;23.20;66.50;;;;;;5032091;28;44219;-66
2022/08/23 10:10:50;;;;;;;2.00;1.90;;;23.20;66.50;;;;;;5055152;28;43755;-65
2022/08/23 10:13:25;;;;;;;2.67;2.05;;;23.30;66.30;;;;;;5038175;28;43508;-65
2022/08/23 10:16:13;;;;;;;2.30;2.10;;;23.30;66.50;;;;;;5041300;28;43572;-65
2022/08/23 10:19:14;;;;;;;3.28;2.10;;;23.30;66.50;;;;;;5040586;28;44713;-66
2022/08/23 10:22:02;;;;;;;2.42;2.10;;;23.40;66.80;;;;;;5053323;28;43432;-66
2022/08/23 10:24:47;;;;;;;2.92;2.20;;;23.40;66.70;;;;;;5055685;28;43457;-66
2022/08/23 10:30:31;;;;;;;2.60;2.40;;;23.40;66.60;;;;;;5038638;28;44014;-65
2022/08/23 10:33:16;;;;;;;2.58;2.17;;;23.40;66.60;;;;;;5052475;28;44805;-66
2022/08/23 10:36:11;;;;;;;2.42;2.10;;;23.40;66.40;;;;;;5052654;28;43435;-66
2022/08/23 10:38:51;;;;;;;3.75;1.90;;;23.50;66.40;;;;;;5055608;28;43424;-66
2022/08/23 10:41:37;;;;;;;3.42;2.13;;;23.50;66.30;;;;;;5039148;28;44968;-66
2022/08/23 10:44:34;;;;;;;2.40;2.20;;;23.50;66.30;;;;;;5021595;28;43539;-66
2022/08/23 10:47:27;;;;;;;2.35;2.15;;;23.50;66.30;;;;;;5047856;28;43424;-66
2022/08/23 10:49:59;;;;;;;2.75;2.33;;;23.50;66.30;;;;;;5038818;28;43673;-66
2022/08/23 10:52:36;;;;;;;1.92;1.83;;;23.50;66.30;;;;;;5035497;28;45325;-66
2022/08/23 10:55:16;;;;;;;2.42;2.10;;;23.50;66.10;;;;;;5054968;28;43488;-66
2022/08/23 10:57:46;;;;;;;2.40;2.20;;;23.50;66.10;;;;;;5038492;28;43449;-66
2022/08/23 11:00:21;;;;;;;2.30;2.10;;;23.50;66.10;;;;;;5051107;28;43499;-66
2022/08/23 11:02:54;;;;;;;2.72;2.22;;;23.60;66.00;;;;;;5037487;28;43801;-67
2022/08/23 11:05:34;;;;;;;2.22;2.00;;;23.60;66.00;;;;;;5038682;28;44096;-66
2022/08/23 11:08:35;;;;;;;2.28;2.08;;;23.70;66.00;;;;;;5038142;28;43410;-66
2022/08/23 11:11:45;;;;;;;2.20;2.03;;;23.70;65.80;;;;;;5056157;28;43495;-66
2022/08/23 11:14:35;;;;;;;2.40;2.20;;;23.70;65.70;;;;;;5055981;28;44971;-67
2022/08/23 11:17:23;;;;;;;2.67;2.40;;;23.80;65.80;;;;;;5038266;28;43420;-66
2022/08/23 11:19:54;;;;;;;4.35;2.10;;;23.70;65.70;;;;;;5037995;28;43487;-66
2022/08/23 11:22:33;;;;;;;3.72;2.35;;;23.80;65.70;;;;;;5036502;28;43467;-67
2022/08/23 11:25:05;;;;;;;3.15;2.10;;;23.80;65.60;;;;;;5038480;28;44701;-66
2022/08/23 11:27:43;;;;;;;2.92;2.33;;;23.80;65.60;;;;;;5039691;28;43999;-67
2022/08/23 11:30:32;;;;;;;4.03;2.38;;;23.90;65.60;;;;;;5039159;28;43415;-67
2022/08/23 11:33:14;;;;;;;2.33;2.03;;;23.90;65.40;;;;;;5037957;28;43594;-67
2022/08/23 11:36:07;;;;;;;2.40;2.20;;;23.90;65.40;;;;;;5051527;28;44991;-67
2022/08/23 11:38:48;;;;;;;2.72;2.05;;;24.00;65.40;;;;;;5038379;28;43570;-67
2022/08/23 11:41:24;;;;;;;2.53;2.15;;;24.00;65.30;;;;;;5035574;28;43509;-67
2022/08/23 11:43:54;;;;;;;2.20;2.00;;;24.00;65.30;;;;;;5053148;28;43610;-67
2022/08/23 11:46:25;;;;;;;2.88;2.30;;;24.00;65.30;;;;;;5038256;28;43976;-67
2022/08/23 11:49:17;;;;;;;2.53;2.33;;;24.10;65.30;;;;;;5038478;28;43508;-67
2022/08/23 11:51:53;;;;;;;2.78;2.20;;;24.10;65.10;;;;;;5040411;28;43379;-67
2022/08/23 11:54:40;;;;;;;2.15;2.05;;;24.10;65.10;;;;;;5036218;28;43506;-67
2022/08/23 11:57:30;;;;;;;3.75;2.15;;;24.10;65.00;;;;;;5038132;28;44025;-68
2022/08/23 12:00:16;;;;;;;2.42;2.22;;;24.20;65.10;;;;;;5036284;28;44001;-68
2022/08/23 12:02:50;;;;;;;2.33;2.13;;;24.20;65.00;;;;;;5039254;28;43491;-67
2022/08/23 12:05:31;;;;;;;2.50;2.13;;;24.20;65.00;;;;;;5038554;28;43450;-68
2022/08/23 12:08:01;;;;;;;2.65;2.15;;;24.20;64.90;;;;;;5040299;28;43808;-67
2022/08/23 12:10:41;;;;;;;2.95;2.20;;;24.30;65.00;;;;;;5039357;28;44295;-67
2022/08/23 12:13:45;;;;;;;2.15;1.92;;;24.30;64.90;;;;;;5041346;28;44127;-67
2022/08/23 12:16:12;;;;;;;2.40;2.20;;;24.30;64.90;;;;;;5014451;28;43585;-67
2022/08/23 12:18:46;;;;;;;1.85;1.75;;;24.30;64.90;;;;;;5042931;28;44054;-67
2022/08/23 12:21:20;;;;;;;2.30;2.10;;;24.30;64.80;;;;;;5035654;28;43692;-66
2022/08/23 12:23:51;;;;;;;2.95;2.17;;;24.30;65.40;;;;;;5034997;28;44026;-66
2022/08/23 12:26:28;;;;;;;2.20;2.00;;;24.40;64.80;;;;;;5037257;28;43477;-67
2022/08/23 12:29:23;;;;;;;2.28;2.17;;;24.40;65.00;;;;;;5037625;28;43756;-67
2022/08/23 12:32:10;;;;;;;3.10;2.10;;;24.40;64.90;;;;;;5033542;28;43740;-67
2022/08/23 12:34:56;;;;;;;2.10;2.00;;;24.50;64.90;;;;;;5032701;28;43517;-67
2022/08/23 12:37:35;;;;;;;2.30;2.10;;;24.50;65.00;;;;;;5040805;28;43419;-67
2022/08/23 12:40:08;;;;;;;2.30;2.05;;;24.50;65.00;;;;;;5036334;28;43874;-67
2022/08/23 12:42:38;;;;;;;1.92;1.83;;;24.50;64.90;;;;;;5035869;28;43987;-68
2022/08/23 12:45:19;;;;;;;2.33;2.17;;;24.60;65.00;;;;;;5043782;28;44054;-68
2022/08/23 12:47:59;;;;;;;2.00;1.90;;;24.60;65.00;;;;;;5041975;28;43415;-67
2022/08/23 12:50:38;;;;;;;2.17;1.97;;;24.60;64.90;;;;;;5028299;28;45053;-67
2022/08/23 12:53:11;;;;;;;2.83;2.30;;;24.60;64.80;;;;;;5043725;28;44063;-67
2022/08/23 12:55:43;;;;;;;2.47;2.28;;;24.60;64.80;;;;;;5056492;28;43439;-67
2022/08/23 12:58:13;;;;;;;2.22;2.03;;;24.60;64.70;;;;;;5031348;28;43586;-67
2022/08/23 13:00:53;;;;;;;2.10;2.00;;;24.70;64.90;;;;;;5036651;28;45002;-67
2022/08/23 13:03:27;;;;;;;2.38;2.15;;;24.70;64.60;;;;;;5039195;28;44096;-67
2022/08/23 13:05:56;;;;;;;2.42;1.90;;;24.70;64.60;;;;;;5039894;28;43436;-67
2022/08/23 13:08:33;;;;;;;2.10;1.90;;;24.70;64.70;;;;;;5027854;28;43481;-67
2022/08/23 13:11:03;;;;;;;2.00;1.90;;;24.70;64.60;;;;;;5037931;28;44962;-67
2022/08/23 13:13:38;;;;;;;1.88;1.77;;;24.70;64.70;;;;;;5039597;28;43539;-67
2022/08/23 13:16:28;;;;;;;2.05;1.95;;;24.70;64.70;;;;;;5031431;28;43441;-68
2022/08/23 13:19:15;;;;;;;1.90;1.80;;;24.70;64.60;;;;;;5035794;28;43658;-66
2022/08/23 13:21:43;;;;;;;1.88;1.77;;;24.70;64.60;;;;;;5037300;28;44062;-67
2022/08/23 13:24:32;;;;;;;1.90;1.80;;;24.80;64.70;;;;;;5033210;28;43446;-67
2022/08/23 13:27:34;;;;;;;2.00;1.90;;;24.80;64.70;;;;;;5038555;28;43386;-67
2022/08/23 13:30:07;;;;;;;2.22;2.03;;;24.80;64.80;;;;;;4993538;28;43479;-67
2022/08/23 13:32:39;;;;;;;1.98;1.85;;;24.80;64.70;;;;;;5042934;28;43793;-67
2022/08/23 13:35:39;;;;;;;2.00;1.90;;;24.90;64.70;;;;;;5030359;28;43961;-67
2022/08/23 13:38:07;;;;;;;2.17;2.08;;;24.90;64.60;;;;;;5034541;28;43442;-68
2022/08/23 13:40:40;;;;;;;2.10;2.00;;;24.90;64.60;;;;;;5039373;28;43674;-67
2022/08/23 13:43:14;;;;;;;3.17;2.15;;;24.90;64.50;;;;;;5028076;28;44915;-67